Time;durP1;ratioP1;P1;durP2;ratioP2;P2;SDS_P1;SDS_P2;PMS_P1;PMS_P2;Temp;Humidity;BMP_temperature;BMP_pressure;BME280_temperature;BME280_humidity;BME280_pressure;Samples;Min_cycle;Max_cycle;Signal;HPM_P1;HPM_P2
2022/03/29 00:00:39;;;;;;;31.75;18.92;;;6.00;99.90;;;;;;4952461;28;20537;-49
2022/03/29 00:03:06;;;;;;;28.83;18.17;;;6.00;99.90;;;;;;4950955;28;20038;-51
2022/03/29 00:05:33;;;;;;;30.27;18.92;;;6.00;99.90;;;;;;4952163;28;20039;-51
2022/03/29 00:07:58;;;;;;;29.17;18.02;;;6.00;99.90;;;;;;4952776;28;20033;-51
2022/03/29 00:10:24;;;;;;;30.55;18.58;;;6.00;99.90;;;;;;4952724;28;20445;-50
2022/03/29 00:12:53;;;;;;;26.85;17.95;;;6.00;99.90;;;;;;4949023;28;20023;-52
2022/03/29 00:15:20;;;;;;;27.63;17.65;;;6.00;99.90;;;;;;4951561;28;20383;-52
2022/03/29 00:17:47;;;;;;;28.35;19.10;;;6.00;99.90;;;;;;4952672;28;20035;-52
2022/03/29 00:20:14;;;;;;;29.75;18.33;;;6.00;99.90;;;;;;4952358;28;20034;-52
2022/03/29 00:22:39;;;;;;;32.92;17.80;;;6.00;99.90;;;;;;4952345;28;20038;-50
2022/03/29 00:25:06;;;;;;;29.13;18.73;;;6.10;99.90;;;;;;4948869;28;20168;-51
2022/03/29 00:27:34;;;;;;;31.98;18.23;;;6.10;99.90;;;;;;4959784;28;20035;-52
2022/03/29 00:30:00;;;;;;;27.88;17.90;;;6.10;99.90;;;;;;4952161;28;20034;-50
2022/03/29 00:32:25;;;;;;;30.85;19.25;;;6.10;99.90;;;;;;4952195;28;20094;-50
2022/03/29 00:34:51;;;;;;;30.92;18.40;;;6.10;99.90;;;;;;4951697;28;20031;-52
2022/03/29 00:37:16;;;;;;;30.00;18.73;;;6.10;99.90;;;;;;4951781;28;20035;-50
2022/03/29 00:39:42;;;;;;;29.38;17.75;;;6.10;99.90;;;;;;4952282;28;20039;-52
2022/03/29 00:42:07;;;;;;;34.30;19.45;;;6.10;99.90;;;;;;4951609;28;20042;-52
2022/03/29 00:44:36;;;;;;;30.40;18.58;;;6.10;99.90;;;;;;4951921;28;20494;-52
2022/03/29 00:47:04;;;;;;;30.80;18.58;;;6.00;99.90;;;;;;4951806;29;20509;-51
2022/03/29 00:49:30;;;;;;;32.10;19.63;;;6.10;99.90;;;;;;4951645;28;20079;-53
2022/03/29 00:52:00;;;;;;;38.40;19.20;;;6.00;99.90;;;;;;4952004;29;20019;-51
2022/03/29 00:54:30;;;;;;;36.00;18.65;;;6.00;99.90;;;;;;4951890;28;20528;-50
2022/03/29 00:57:01;;;;;;;30.95;19.35;;;6.00;99.90;;;;;;4952054;28;20050;-53
2022/03/29 00:59:27;;;;;;;30.90;18.90;;;6.00;99.90;;;;;;4949233;28;20098;-51
2022/03/29 01:01:54;;;;;;;35.50;19.70;;;6.00;99.90;;;;;;4949830;28;20043;-48
2022/03/29 01:04:23;;;;;;;30.95;18.05;;;6.00;99.90;;;;;;4949894;28;20510;-52
2022/03/29 01:06:48;;;;;;;27.25;18.13;;;6.00;99.90;;;;;;4952102;28;20114;-51
2022/03/29 01:09:14;;;;;;;31.60;18.77;;;6.00;99.90;;;;;;4950149;28;20122;-50
2022/03/29 01:11:40;;;;;;;27.65;17.08;;;6.00;99.90;;;;;;4951567;28;20023;-53
2022/03/29 01:14:06;;;;;;;26.77;17.50;;;6.10;99.90;;;;;;4951304;28;20034;-51
2022/03/29 01:19:36;;;;;;;33.50;18.17;;;6.10;99.90;;;;;;4947606;28;20038;-52
2022/03/29 01:22:03;;;;;;;29.23;16.35;;;6.00;99.90;;;;;;4961812;28;20509;-50
2022/03/29 01:24:29;;;;;;;24.77;15.27;;;6.00;99.90;;;;;;4951101;28;20027;-50
2022/03/29 01:26:59;;;;;;;26.77;15.73;;;6.10;99.90;;;;;;4951332;29;20043;-50
2022/03/29 01:29:25;;;;;;;23.08;15.18;;;6.10;99.90;;;;;;4949859;28;20046;-50
2022/03/29 01:31:52;;;;;;;24.13;15.02;;;6.00;99.90;;;;;;4951426;29;20026;-51
2022/03/29 01:34:21;;;;;;;24.08;14.98;;;6.00;99.90;;;;;;4951771;28;20027;-50
2022/03/29 01:36:47;;;;;;;25.95;15.18;;;6.10;99.90;;;;;;4950949;29;20359;-50
2022/03/29 01:39:13;;;;;;;29.38;15.30;;;6.10;99.90;;;;;;4951248;28;20627;-52
2022/03/29 01:41:39;;;;;;;21.35;14.90;;;6.10;99.90;;;;;;4950627;28;20490;-55
2022/03/29 01:44:10;;;;;;;30.15;15.57;;;6.10;99.90;;;;;;4950882;28;20050;-50
2022/03/29 01:46:35;;;;;;;22.45;15.10;;;6.10;99.90;;;;;;4951202;28;20059;-50
2022/03/29 01:49:03;;;;;;;22.42;13.63;;;6.10;99.90;;;;;;4955473;28;20059;-51
2022/03/29 01:51:29;;;;;;;27.42;14.15;;;6.10;99.90;;;;;;4954555;28;20054;-50
2022/03/29 01:54:00;;;;;;;17.85;11.30;;;6.10;99.90;;;;;;4955018;28;20031;-50
2022/03/29 01:56:31;;;;;;;20.67;11.93;;;6.10;99.90;;;;;;4954157;28;20763;-50
2022/03/29 01:59:04;;;;;;;17.45;10.95;;;6.10;99.90;;;;;;4954572;28;20098;-49
2022/03/29 02:01:30;;;;;;;19.02;10.98;;;6.10;99.90;;;;;;4955126;28;20110;-49
2022/03/29 02:03:55;;;;;;;18.80;11.00;;;6.10;99.90;;;;;;4954944;28;20114;-50
2022/03/29 02:06:21;;;;;;;18.23;11.07;;;6.10;99.90;;;;;;4955201;28;20031;-52
2022/03/29 02:08:46;;;;;;;18.77;10.50;;;6.10;99.90;;;;;;4954104;29;20023;-51
2022/03/29 02:11:13;;;;;;;15.93;10.13;;;6.10;99.90;;;;;;4954851;28;20217;-51
2022/03/29 02:13:39;;;;;;;15.57;11.35;;;6.10;99.90;;;;;;4954805;28;20030;-50
2022/03/29 02:16:05;;;;;;;18.33;10.82;;;6.10;99.90;;;;;;4955443;28;20106;-52
2022/03/29 02:18:31;;;;;;;22.45;12.85;;;6.10;99.90;;;;;;4954547;29;20625;-51
2022/03/29 02:20:56;;;;;;;21.63;12.00;;;6.00;99.90;;;;;;4953472;28;20035;-50
2022/03/29 02:23:22;;;;;;;19.85;11.93;;;6.00;99.90;;;;;;4954567;28;20062;-50
2022/03/29 02:25:47;;;;;;;18.27;12.63;;;6.00;99.90;;;;;;4954332;29;20358;-51
2022/03/29 02:28:14;;;;;;;22.25;13.18;;;5.90;99.90;;;;;;4954864;28;20500;-51
2022/03/29 02:30:40;;;;;;;21.17;13.13;;;5.90;99.90;;;;;;4954672;28;20166;-50
2022/03/29 02:33:06;;;;;;;21.77;12.95;;;5.90;99.90;;;;;;4954381;28;20488;-51
2022/03/29 02:35:33;;;;;;;24.27;12.68;;;5.90;99.90;;;;;;4954585;28;20085;-50
2022/03/29 02:37:59;;;;;;;21.23;9.50;;;5.90;99.90;;;;;;4953943;28;20237;-52
2022/03/29 02:40:25;;;;;;;16.10;8.73;;;5.80;99.90;;;;;;4953885;28;20102;-49
2022/03/29 02:42:52;;;;;;;15.43;7.90;;;5.80;99.90;;;;;;4954318;28;20035;-49
2022/03/29 02:45:20;;;;;;;19.63;7.88;;;5.70;99.90;;;;;;4937920;29;20409;-49
2022/03/29 02:47:49;;;;;;;15.43;6.50;;;5.60;99.90;;;;;;4954411;28;20089;-49
2022/03/29 02:50:15;;;;;;;15.68;7.00;;;5.60;99.90;;;;;;4954098;28;20027;-49
2022/03/29 02:52:48;;;;;;;12.52;5.80;;;5.50;99.90;;;;;;4938451;29;20093;-50
2022/03/29 02:55:20;;;;;;;15.52;7.10;;;5.40;99.90;;;;;;4954249;29;20469;-50
2022/03/29 02:57:47;;;;;;;16.60;6.25;;;5.30;99.90;;;;;;4954504;28;20594;-50
2022/03/29 03:00:17;;;;;;;15.70;5.13;;;5.20;99.90;;;;;;4954138;28;20498;-49
2022/03/29 03:02:47;;;;;;;15.70;6.15;;;5.20;99.90;;;;;;4953484;28;20035;-51
2022/03/29 03:05:13;;;;;;;16.63;6.63;;;5.10;99.90;;;;;;4953426;28;20141;-50
2022/03/29 03:07:40;;;;;;;16.40;5.38;;;5.10;99.90;;;;;;4954039;28;20027;-50
2022/03/29 03:10:07;;;;;;;14.90;5.45;;;5.00;99.90;;;;;;4953887;28;20106;-53
2022/03/29 03:12:40;;;;;;;18.02;5.93;;;4.90;99.90;;;;;;4953754;28;20065;-51
2022/03/29 03:15:07;;;;;;;15.07;4.97;;;4.90;99.90;;;;;;4953998;28;20031;-49
2022/03/29 03:17:33;;;;;;;17.25;5.00;;;4.80;99.90;;;;;;4953864;28;20037;-51
2022/03/29 03:19:59;;;;;;;13.90;5.05;;;4.70;99.90;;;;;;4952137;28;20039;-50
2022/03/29 03:22:24;;;;;;;15.75;4.43;;;4.70;99.90;;;;;;4952537;28;20024;-52
2022/03/29 03:24:50;;;;;;;17.10;4.55;;;4.60;99.90;;;;;;4952956;28;20557;-50
2022/03/29 03:27:16;;;;;;;16.92;4.68;;;4.50;99.90;;;;;;4953060;28;20393;-52
2022/03/29 03:29:44;;;;;;;13.45;3.70;;;4.50;99.90;;;;;;4953507;28;20482;-50
2022/03/29 03:32:10;;;;;;;12.48;4.78;;;4.50;99.90;;;;;;4953355;28;20102;-51
2022/03/29 03:34:35;;;;;;;18.10;4.47;;;4.40;99.90;;;;;;4953371;28;20107;-51
2022/03/29 03:37:03;;;;;;;16.23;3.97;;;4.40;99.90;;;;;;4953433;28;20485;-50
2022/03/29 03:39:29;;;;;;;17.80;4.95;;;4.30;99.90;;;;;;4954252;28;20023;-48
2022/03/29 03:41:55;;;;;;;20.70;4.82;;;4.30;99.90;;;;;;4952537;28;20051;-50
2022/03/29 03:44:22;;;;;;;17.38;4.53;;;4.30;99.90;;;;;;4953415;28;20028;-50
2022/03/29 03:46:48;;;;;;;21.63;4.75;;;4.20;99.90;;;;;;4952989;28;20113;-51
2022/03/29 03:49:13;;;;;;;19.08;5.22;;;4.10;99.90;;;;;;4952993;28;20128;-51
2022/03/29 03:51:39;;;;;;;13.90;3.85;;;4.10;99.90;;;;;;4953168;28;20066;-50
2022/03/29 03:54:05;;;;;;;13.77;4.38;;;4.00;99.90;;;;;;4952569;28;20086;-50
2022/03/29 03:56:30;;;;;;;21.27;5.25;;;4.00;99.90;;;;;;4953066;28;20041;-52
2022/03/29 03:58:56;;;;;;;12.65;4.38;;;4.00;99.90;;;;;;4952615;28;20413;-50
2022/03/29 04:01:23;;;;;;;16.35;3.88;;;4.00;99.90;;;;;;4952749;28;20062;-54
2022/03/29 04:03:48;;;;;;;11.13;3.55;;;3.90;99.90;;;;;;4952411;29;20031;-48
2022/03/29 04:06:14;;;;;;;16.85;4.82;;;3.90;99.90;;;;;;4951147;28;20495;-51
2022/03/29 04:08:40;;;;;;;13.13;3.67;;;3.90;99.90;;;;;;4951377;28;20027;-51
2022/03/29 04:11:08;;;;;;;15.63;4.18;;;3.80;99.90;;;;;;4951918;28;20066;-49
2022/03/29 04:13:34;;;;;;;19.95;4.15;;;3.80;99.90;;;;;;4952394;28;20042;-50
2022/03/29 04:16:01;;;;;;;16.77;4.07;;;3.80;99.90;;;;;;4952409;28;20127;-51
2022/03/29 04:18:26;;;;;;;16.17;4.22;;;3.70;99.90;;;;;;4952276;29;20031;-51
2022/03/29 04:20:53;;;;;;;16.70;5.25;;;3.70;99.90;;;;;;4952063;28;20054;-51
2022/03/29 04:23:19;;;;;;;12.43;4.63;;;3.70;99.90;;;;;;4952169;28;20036;-52
2022/03/29 04:25:44;;;;;;;11.25;4.82;;;3.60;99.90;;;;;;4952823;28;20485;-50
2022/03/29 04:28:10;;;;;;;9.90;4.20;;;3.60;99.90;;;;;;4952449;28;20031;-49
2022/03/29 04:30:35;;;;;;;11.95;3.92;;;3.50;99.90;;;;;;4952113;28;20529;-51
2022/03/29 04:33:01;;;;;;;18.13;4.63;;;3.50;99.90;;;;;;4950606;29;20586;-51
2022/03/29 04:35:27;;;;;;;12.18;4.95;;;3.50;99.90;;;;;;4951677;28;20532;-51
2022/03/29 04:37:53;;;;;;;20.42;4.88;;;3.40;99.90;;;;;;4951668;29;20062;-52
2022/03/29 04:40:20;;;;;;;14.00;5.35;;;3.40;99.90;;;;;;4952095;28;20630;-50
2022/03/29 04:42:47;;;;;;;25.00;5.13;;;3.40;99.90;;;;;;4951899;28;20371;-48
2022/03/29 04:45:14;;;;;;;20.05;5.55;;;3.30;99.90;;;;;;4952231;28;20043;-50
2022/03/29 04:47:44;;;;;;;20.80;5.78;;;3.30;99.90;;;;;;4952396;29;20030;-49
2022/03/29 04:50:11;;;;;;;15.63;4.45;;;3.30;99.90;;;;;;4952263;28;20027;-50
2022/03/29 04:52:39;;;;;;;16.10;5.03;;;3.20;99.90;;;;;;4951698;28;20504;-50
2022/03/29 04:55:06;;;;;;;16.50;5.43;;;3.20;99.90;;;;;;4951601;28;20031;-50
2022/03/29 04:57:32;;;;;;;21.40;4.25;;;3.20;99.90;;;;;;4951455;28;20035;-50
2022/03/29 04:59:58;;;;;;;11.73;3.70;;;3.10;99.90;;;;;;4951769;28;20071;-51
2022/03/29 05:02:23;;;;;;;21.60;4.57;;;3.10;99.90;;;;;;4950409;29;20059;-50
2022/03/29 05:04:51;;;;;;;21.08;4.38;;;3.10;99.90;;;;;;4951725;29;20035;-50
2022/03/29 05:07:17;;;;;;;16.13;4.68;;;3.10;99.90;;;;;;4951569;28;20466;-51
2022/03/29 05:09:42;;;;;;;21.77;4.43;;;3.10;99.90;;;;;;4951360;28;20023;-51
2022/03/29 05:12:08;;;;;;;13.35;4.28;;;3.00;99.90;;;;;;4951380;29;20083;-50
2022/03/29 05:14:34;;;;;;;21.00;4.95;;;3.00;99.90;;;;;;4951151;28;20039;-51
2022/03/29 05:17:00;;;;;;;19.83;3.70;;;3.00;99.90;;;;;;4951798;28;20077;-53
2022/03/29 05:22:08;;;;;;;15.65;4.40;;;3.00;99.90;;;;;;4985213;28;20062;-49
2022/03/29 05:24:34;;;;;;;21.02;5.00;;;3.00;99.90;;;;;;4989339;28;20029;-47
2022/03/29 05:26:59;;;;;;;16.92;4.13;;;3.00;99.90;;;;;;4989877;28;20448;-47
2022/03/29 05:29:25;;;;;;;18.40;3.45;;;3.00;99.90;;;;;;4989885;28;20030;-45
2022/03/29 05:31:51;;;;;;;16.80;4.03;;;3.00;99.90;;;;;;4989968;28;20026;-49
2022/03/29 05:34:17;;;;;;;17.33;4.40;;;3.00;99.90;;;;;;4988686;28;20030;-47
2022/03/29 05:36:44;;;;;;;20.63;4.75;;;3.00;99.90;;;;;;4989577;28;20105;-48
2022/03/29 05:39:10;;;;;;;22.55;4.72;;;3.00;99.90;;;;;;4990085;28;20054;-48
2022/03/29 05:41:35;;;;;;;14.27;3.30;;;3.00;99.90;;;;;;4989830;28;20034;-47
2022/03/29 05:44:01;;;;;;;16.63;3.45;;;3.10;99.90;;;;;;4989177;28;20030;-51
2022/03/29 05:49:11;;;;;;;21.70;3.55;;;3.10;99.90;;;;;;4989693;28;20166;-46
2022/03/29 05:51:36;;;;;;;14.25;5.20;;;3.10;99.90;;;;;;4989447;28;20023;-47
2022/03/29 05:54:04;;;;;;;19.10;4.47;;;3.10;99.90;;;;;;4989538;28;20473;-47
2022/03/29 05:56:29;;;;;;;16.33;4.15;;;3.20;99.90;;;;;;4989237;28;20048;-49
2022/03/29 05:58:55;;;;;;;20.27;3.97;;;3.20;99.90;;;;;;4988193;28;20517;-47
2022/03/29 06:01:21;;;;;;;12.88;3.63;;;3.20;99.90;;;;;;4989093;28;20569;-51
2022/03/29 06:03:46;;;;;;;21.20;3.95;;;3.30;99.90;;;;;;4989288;28;20028;-48
2022/03/29 06:06:13;;;;;;;10.00;3.00;;;3.40;99.90;;;;;;4989721;28;20038;-47
2022/03/29 06:08:39;;;;;;;14.77;3.95;;;3.40;99.90;;;;;;4989837;28;20057;-48
2022/03/29 06:11:04;;;;;;;12.15;2.95;;;3.50;99.90;;;;;;4987978;28;20085;-49
2022/03/29 06:13:30;;;;;;;8.45;2.97;;;3.50;99.90;;;;;;4984318;28;20041;-48
2022/03/29 06:15:56;;;;;;;13.88;3.90;;;3.50;99.90;;;;;;4989610;28;20030;-47
2022/03/29 06:18:22;;;;;;;11.23;2.72;;;3.50;99.90;;;;;;4989605;28;20022;-49
2022/03/29 06:20:49;;;;;;;13.30;3.42;;;3.60;99.90;;;;;;4989002;28;20114;-49
2022/03/29 06:23:14;;;;;;;18.65;3.80;;;3.60;99.90;;;;;;4989667;28;20053;-48
2022/03/29 06:25:40;;;;;;;12.68;2.95;;;3.60;99.90;;;;;;4989694;28;20035;-47
2022/03/29 06:28:06;;;;;;;11.45;3.05;;;3.70;99.90;;;;;;4989643;28;20050;-48
2022/03/29 06:30:32;;;;;;;16.60;3.22;;;3.70;99.90;;;;;;4989173;28;20018;-46
2022/03/29 06:32:59;;;;;;;11.77;2.88;;;3.70;99.90;;;;;;4989622;28;20551;-47
2022/03/29 06:35:27;;;;;;;19.10;4.10;;;3.70;99.90;;;;;;4993158;28;20108;-48
2022/03/29 06:37:55;;;;;;;13.27;2.97;;;3.70;99.90;;;;;;4993030;28;20567;-48
2022/03/29 06:40:22;;;;;;;15.07;3.58;;;3.80;99.90;;;;;;4992503;28;20469;-48
2022/03/29 06:42:48;;;;;;;9.57;3.08;;;3.90;99.90;;;;;;4991049;28;20050;-48
2022/03/29 06:45:14;;;;;;;19.35;3.97;;;4.00;99.90;;;;;;4993337;28;20054;-50
2022/03/29 06:47:41;;;;;;;7.28;2.10;;;4.00;99.90;;;;;;4992614;28;20449;-47
2022/03/29 06:50:08;;;;;;;14.15;3.05;;;4.10;99.90;;;;;;4992617;28;20116;-48
2022/03/29 06:52:39;;;;;;;8.23;3.08;;;4.10;99.90;;;;;;4991925;28;20042;-49
2022/03/29 06:55:06;;;;;;;11.55;2.22;;;4.20;99.90;;;;;;4992899;28;20118;-49
2022/03/29 06:57:32;;;;;;;14.70;2.60;;;4.30;99.90;;;;;;4992547;28;20055;-48
2022/03/29 06:59:58;;;;;;;14.60;2.38;;;4.40;99.90;;;;;;4993040;28;20037;-52
2022/03/29 07:02:24;;;;;;;15.30;2.60;;;4.50;99.90;;;;;;4992218;28;20030;-49
2022/03/29 07:04:51;;;;;;;13.45;2.63;;;4.60;99.90;;;;;;4992143;28;20057;-48
2022/03/29 07:07:16;;;;;;;16.83;3.15;;;4.60;99.90;;;;;;4992129;28;20085;-47
2022/03/29 07:12:26;;;;;;;11.82;3.15;;;4.70;99.90;;;;;;4992347;28;20077;-51
2022/03/29 07:14:51;;;;;;;12.55;2.55;;;4.80;99.90;;;;;;4992390;28;20026;-51
2022/03/29 07:17:18;;;;;;;8.80;2.40;;;4.90;99.90;;;;;;4992222;28;20104;-48
2022/03/29 07:19:44;;;;;;;13.20;2.38;;;5.00;99.90;;;;;;4992111;28;20030;-47
2022/03/29 07:22:09;;;;;;;10.43;2.10;;;5.10;99.90;;;;;;4992411;28;20539;-49
2022/03/29 07:24:35;;;;;;;13.40;2.83;;;5.20;99.90;;;;;;4990758;28;20061;-47
2022/03/29 07:27:01;;;;;;;17.08;2.83;;;5.20;99.90;;;;;;4991788;28;20029;-48
2022/03/29 07:29:28;;;;;;;12.00;2.92;;;5.30;99.90;;;;;;4991733;28;20026;-50
2022/03/29 07:31:53;;;;;;;13.10;2.58;;;5.40;99.90;;;;;;4991834;28;20015;-47
2022/03/29 07:34:19;;;;;;;13.32;2.15;;;5.50;99.90;;;;;;4991955;28;20492;-51
2022/03/29 07:36:47;;;;;;;12.48;2.72;;;5.70;99.90;;;;;;4991841;28;20030;-50
2022/03/29 07:39:13;;;;;;;10.20;2.47;;;5.80;99.90;;;;;;4992047;28;20038;-47
2022/03/29 07:41:39;;;;;;;10.82;2.70;;;6.00;99.90;;;;;;4992014;28;20034;-48
2022/03/29 07:44:04;;;;;;;10.20;2.42;;;6.20;99.90;;;;;;4989725;28;20511;-49
2022/03/29 07:46:30;;;;;;;6.07;1.50;;;6.30;99.90;;;;;;4990862;28;20057;-49
2022/03/29 07:48:55;;;;;;;12.27;3.25;;;6.30;99.90;;;;;;4991753;28;20433;-47
2022/03/29 07:51:22;;;;;;;8.85;1.63;;;6.30;99.90;;;;;;4991269;28;20100;-47
2022/03/29 07:53:48;;;;;;;14.00;2.78;;;6.40;99.90;;;;;;4989816;28;20026;-48
2022/03/29 07:56:14;;;;;;;8.73;1.92;;;6.30;99.90;;;;;;4990986;28;20026;-48
2022/03/29 07:58:40;;;;;;;10.20;1.92;;;6.30;99.90;;;;;;4988600;28;20027;-49
2022/03/29 08:01:06;;;;;;;7.68;2.05;;;6.40;99.90;;;;;;4991491;28;20624;-49
2022/03/29 08:03:33;;;;;;;17.25;2.60;;;6.40;99.90;;;;;;4991541;28;20054;-48
2022/03/29 08:06:01;;;;;;;7.38;2.65;;;6.40;99.90;;;;;;4990737;28;20518;-48
2022/03/29 08:08:27;;;;;;;6.13;2.20;;;6.50;99.90;;;;;;4991261;28;20037;-48
2022/03/29 08:10:54;;;;;;;9.88;1.60;;;6.80;99.90;;;;;;4990763;28;20038;-50
2022/03/29 08:13:20;;;;;;;5.97;2.40;;;6.90;99.90;;;;;;4990966;28;20062;-46
2022/03/29 08:15:48;;;;;;;9.85;2.25;;;6.80;99.90;;;;;;4989220;28;20073;-47
2022/03/29 08:18:16;;;;;;;9.93;1.70;;;7.00;99.90;;;;;;4991032;28;20432;-48
2022/03/29 08:20:42;;;;;;;6.18;2.28;;;7.10;99.90;;;;;;4991059;28;20035;-52
2022/03/29 08:23:08;;;;;;;5.55;1.92;;;7.30;99.90;;;;;;4990905;28;20507;-47
2022/03/29 08:25:37;;;;;;;6.13;2.13;;;7.30;99.90;;;;;;4990624;28;20508;-46
2022/03/29 08:28:03;;;;;;;8.73;2.80;;;7.30;99.90;;;;;;4990668;28;20026;-46
2022/03/29 08:30:30;;;;;;;7.43;2.28;;;7.60;99.90;;;;;;4991069;28;20027;-50
2022/03/29 08:32:57;;;;;;;9.88;2.60;;;7.90;99.90;;;;;;4990626;28;20038;-49
2022/03/29 08:35:23;;;;;;;9.10;2.65;;;8.00;99.90;;;;;;4990319;28;20015;-47
2022/03/29 08:37:48;;;;;;;8.55;3.13;;;8.00;99.90;;;;;;4990745;28;20034;-50
2022/03/29 08:40:22;;;;;;;9.70;2.33;;;8.00;99.90;;;;;;4990672;28;20029;-50
2022/03/29 08:42:49;;;;;;;8.52;3.20;;;7.90;99.90;;;;;;4990491;28;20085;-50
2022/03/29 08:45:17;;;;;;;9.73;2.38;;;7.80;99.90;;;;;;4990680;28;20030;-51
2022/03/29 08:47:45;;;;;;;8.40;2.78;;;7.80;99.90;;;;;;4987480;28;20030;-50
2022/03/29 08:50:14;;;;;;;4.63;2.00;;;7.80;99.90;;;;;;4989858;28;20497;-48
2022/03/29 08:52:41;;;;;;;8.02;2.05;;;7.80;99.90;;;;;;4990078;28;20022;-51
2022/03/29 08:55:08;;;;;;;3.35;1.58;;;8.00;99.90;;;;;;4989072;28;20047;-49
2022/03/29 08:57:35;;;;;;;5.85;3.05;;;8.10;99.90;;;;;;4989148;28;20416;-50
2022/03/29 09:00:01;;;;;;;10.68;2.47;;;8.20;99.90;;;;;;4990323;28;20035;-52
2022/03/29 09:02:33;;;;;;;7.63;1.92;;;8.20;99.90;;;;;;4988922;28;20045;-51
2022/03/29 09:05:07;;;;;;;6.35;2.35;;;8.30;99.90;;;;;;4990404;28;20500;-51
2022/03/29 09:07:54;;;;;;;13.40;2.15;;;8.60;99.90;;;;;;4988913;28;20030;-54
2022/03/29 09:10:40;;;;;;;5.60;1.60;;;8.70;99.90;;;;;;4990415;28;20147;-49
2022/03/29 09:13:27;;;;;;;9.60;2.40;;;9.00;99.90;;;;;;4988413;28;20034;-50
2022/03/29 09:15:55;;;;;;;3.38;1.42;;;9.10;99.90;;;;;;4990011;28;20026;-50
2022/03/29 09:18:22;;;;;;;6.50;2.42;;;9.10;99.90;;;;;;4990518;28;20030;-49
2022/03/29 09:21:15;;;;;;;6.85;2.45;;;8.90;99.90;;;;;;4989445;28;20034;-50
2022/03/29 09:23:43;;;;;;;8.18;2.03;;;8.60;99.90;;;;;;4988131;28;20517;-47
2022/03/29 09:26:28;;;;;;;10.82;2.15;;;8.70;99.90;;;;;;4989164;28;20426;-54
2022/03/29 09:28:53;;;;;;;9.30;1.95;;;9.10;99.90;;;;;;4970466;28;20106;-52
2022/03/29 09:31:22;;;;;;;33.75;6.03;;;9.00;99.90;;;;;;4985396;28;20113;-47
2022/03/29 09:33:49;;;;;;;6.18;1.33;;;9.20;99.90;;;;;;4989760;28;20026;-51
2022/03/29 09:36:14;;;;;;;24.35;3.78;;;9.50;99.90;;;;;;4990176;28;20041;-49
2022/03/29 09:38:46;;;;;;;10.95;3.15;;;9.60;99.90;;;;;;4989468;28;20480;-50
2022/03/29 09:41:29;;;;;;;5.35;1.20;;;9.50;99.90;;;;;;4989888;28;20046;-53
2022/03/29 09:44:09;;;;;;;6.00;1.73;;;9.40;99.90;;;;;;4989438;28;20030;-49
2022/03/29 09:46:59;;;;;;;7.53;2.08;;;9.40;99.90;;;;;;4989924;28;20084;-48
2022/03/29 09:49:26;;;;;;;14.70;2.70;;;9.50;99.90;;;;;;4989898;28;20045;-52
2022/03/29 09:52:14;;;;;;;8.93;2.13;;;9.70;98.20;;;;;;4989690;28;20026;-48
2022/03/29 09:54:39;;;;;;;6.10;1.40;;;9.60;99.20;;;;;;4989624;28;20102;-54
2022/03/29 09:57:05;;;;;;;7.32;1.55;;;9.70;98.00;;;;;;4990070;28;20050;-48
2022/03/29 09:59:32;;;;;;;5.57;1.48;;;9.60;97.90;;;;;;4989716;28;20026;-51
2022/03/29 10:01:58;;;;;;;5.90;1.73;;;9.80;98.90;;;;;;4988034;28;20479;-48
2022/03/29 10:04:26;;;;;;;6.45;1.80;;;10.00;97.10;;;;;;4989855;28;20023;-48
2022/03/29 10:06:57;;;;;;;4.18;1.40;;;10.00;96.60;;;;;;4989829;28;20026;-48
2022/03/29 10:09:35;;;;;;;13.35;1.85;;;10.20;96.70;;;;;;4992563;28;20397;-50
2022/03/29 10:12:10;;;;;;;5.88;1.55;;;10.10;96.40;;;;;;4993303;28;20022;-49
2022/03/29 10:14:44;;;;;;;10.98;2.08;;;9.80;96.80;;;;;;4992396;28;20421;-49
2022/03/29 10:17:11;;;;;;;3.85;1.27;;;9.80;97.30;;;;;;4993589;28;20030;-49
2022/03/29 10:19:38;;;;;;;8.00;1.88;;;9.70;98.30;;;;;;4993397;28;20563;-51
2022/03/29 10:22:05;;;;;;;6.63;1.35;;;9.60;97.60;;;;;;4993121;28;20069;-50
2022/03/29 10:24:32;;;;;;;6.90;1.45;;;9.70;97.90;;;;;;4992017;28;20411;-52
2022/03/29 10:27:02;;;;;;;8.55;2.08;;;9.80;97.30;;;;;;4993632;28;20030;-50
2022/03/29 10:29:29;;;;;;;4.95;1.35;;;9.60;95.70;;;;;;4993414;28;20026;-52
2022/03/29 10:32:01;;;;;;;7.38;1.85;;;9.70;96.70;;;;;;4993209;28;20107;-51
2022/03/29 10:34:28;;;;;;;5.50;2.30;;;9.80;98.90;;;;;;4993367;28;20022;-50
2022/03/29 10:37:14;;;;;;;6.55;1.38;;;10.00;97.50;;;;;;4993674;28;20661;-52
2022/03/29 10:39:57;;;;;;;3.47;1.25;;;10.10;99.80;;;;;;4993128;28;20030;-51
2022/03/29 10:42:32;;;;;;;11.68;2.50;;;10.20;97.30;;;;;;4993156;28;20385;-49
2022/03/29 10:45:02;;;;;;;5.30;1.80;;;10.20;96.20;;;;;;4992866;28;20033;-51
2022/03/29 10:47:30;;;;;;;14.20;1.98;;;10.20;94.20;;;;;;4993067;28;20022;-53
2022/03/29 10:49:56;;;;;;;13.73;3.00;;;10.00;94.80;;;;;;4993118;28;20042;-53
2022/03/29 10:52:21;;;;;;;10.00;2.47;;;9.90;95.70;;;;;;4993203;28;20444;-48
2022/03/29 10:54:48;;;;;;;9.35;1.65;;;10.10;97.70;;;;;;4993082;28;20053;-52
2022/03/29 10:57:26;;;;;;;3.22;1.27;;;10.30;96.10;;;;;;4991802;28;20081;-51
2022/03/29 11:00:06;;;;;;;4.10;1.42;;;10.30;95.80;;;;;;4992922;28;20057;-50
2022/03/29 11:02:32;;;;;;;4.53;1.67;;;10.40;95.80;;;;;;4992865;28;20041;-52
2022/03/29 11:05:08;;;;;;;7.65;1.75;;;10.40;91.30;;;;;;4993183;28;20027;-48
2022/03/29 11:07:35;;;;;;;6.82;1.75;;;10.40;92.90;;;;;;4993261;28;20049;-48
2022/03/29 11:10:11;;;;;;;7.78;2.28;;;10.40;93.50;;;;;;4992856;28;20042;-48
2022/03/29 11:12:51;;;;;;;3.45;1.27;;;10.40;94.10;;;;;;4992132;28;20564;-50
2022/03/29 11:15:35;;;;;;;5.57;1.48;;;10.50;93.90;;;;;;4992982;28;20034;-50
2022/03/29 11:18:04;;;;;;;7.25;1.60;;;10.70;93.80;;;;;;4993392;28;20215;-48
2022/03/29 11:20:39;;;;;;;5.65;1.63;;;10.80;93.90;;;;;;5018730;22;20033;-51
2022/03/29 11:23:06;;;;;;;1.92;1.27;;;10.80;94.10;;;;;;5011315;28;20026;-51
2022/03/29 11:25:39;;;;;;;9.00;1.77;;;10.90;94.40;;;;;;5012067;28;20472;-51
2022/03/29 11:28:13;;;;;;;5.15;1.65;;;10.90;91.80;;;;;;5012203;28;20014;-50
2022/03/29 11:30:38;;;;;;;6.22;1.33;;;10.90;91.20;;;;;;5012282;28;20022;-52
2022/03/29 11:33:06;;;;;;;8.98;1.65;;;10.80;92.70;;;;;;5012102;28;20373;-53
2022/03/29 11:35:33;;;;;;;6.40;1.08;;;10.70;92.70;;;;;;5012808;28;20033;-49
2022/03/29 11:38:13;;;;;;;7.78;2.10;;;10.40;92.50;;;;;;5011409;28;20049;-50
2022/03/29 11:40:40;;;;;;;7.47;1.35;;;10.40;93.20;;;;;;5012215;28;20022;-51
2022/03/29 11:43:10;;;;;;;4.43;1.67;;;10.40;93.40;;;;;;5012404;28;20049;-52
2022/03/29 11:45:44;;;;;;;2.40;1.38;;;10.40;93.00;;;;;;5011887;28;20022;-50
2022/03/29 11:48:13;;;;;;;8.32;1.90;;;10.60;95.60;;;;;;5011839;28;20022;-51
2022/03/29 11:50:52;;;;;;;5.82;1.92;;;10.80;94.40;;;;;;5011812;28;20022;-51
2022/03/29 11:53:28;;;;;;;6.57;1.40;;;10.90;93.10;;;;;;5011518;28;20037;-50
2022/03/29 11:55:59;;;;;;;7.90;1.35;;;10.70;91.30;;;;;;5012008;28;20030;-52
2022/03/29 11:58:38;;;;;;;6.13;1.50;;;10.70;93.50;;;;;;5011466;28;20030;-51
2022/03/29 12:01:15;;;;;;;10.45;1.90;;;10.50;93.10;;;;;;5012133;28;20492;-53
2022/03/29 12:03:43;;;;;;;5.47;1.45;;;10.50;93.90;;;;;;5011807;28;20159;-52
2022/03/29 12:06:26;;;;;;;8.07;1.70;;;10.60;94.70;;;;;;5011409;28;20026;-53
2022/03/29 12:08:54;;;;;;;14.20;2.45;;;10.60;92.70;;;;;;5011572;28;20018;-51
2022/03/29 12:11:24;;;;;;;10.23;1.88;;;10.50;92.30;;;;;;5011532;28;20554;-52
2022/03/29 12:14:04;;;;;;;6.28;1.45;;;10.50;92.80;;;;;;5011154;28;20026;-50
2022/03/29 12:16:42;;;;;;;4.53;1.35;;;10.50;92.60;;;;;;5011310;28;20042;-52
2022/03/29 12:19:12;;;;;;;6.03;1.67;;;10.60;95.50;;;;;;5011655;28;20433;-49
2022/03/29 12:21:42;;;;;;;6.95;1.40;;;10.70;94.80;;;;;;5011100;28;20046;-50
2022/03/29 12:24:10;;;;;;;6.47;1.58;;;10.60;93.90;;;;;;5011096;28;20083;-50
2022/03/29 12:26:40;;;;;;;10.13;1.50;;;10.60;94.80;;;;;;5010900;28;20079;-52
2022/03/29 12:29:09;;;;;;;4.22;1.17;;;10.70;94.30;;;;;;5010867;28;20097;-52
2022/03/29 12:31:37;;;;;;;4.53;1.63;;;10.60;92.60;;;;;;5009930;28;20123;-50
2022/03/29 12:34:03;;;;;;;3.30;1.38;;;10.50;92.50;;;;;;5010793;28;20029;-51
2022/03/29 12:36:29;;;;;;;5.70;1.27;;;10.50;92.40;;;;;;5010027;28;20030;-52
2022/03/29 12:39:04;;;;;;;4.80;1.58;;;10.50;93.30;;;;;;5025937;28;20100;-51
2022/03/29 12:41:42;;;;;;;5.13;1.33;;;10.70;93.90;;;;;;5010705;28;20026;-51
2022/03/29 12:44:09;;;;;;;5.65;1.23;;;10.80;93.00;;;;;;5010206;28;20030;-51
2022/03/29 12:46:36;;;;;;;4.20;1.52;;;10.80;91.70;;;;;;5010691;28;20062;-53
2022/03/29 12:49:02;;;;;;;4.78;1.38;;;10.80;92.70;;;;;;5026118;28;20029;-51
2022/03/29 12:51:33;;;;;;;4.03;1.10;;;10.80;92.80;;;;;;5010771;28;20018;-50
2022/03/29 12:54:06;;;;;;;4.90;1.55;;;10.70;88.80;;;;;;5010330;28;20056;-48
2022/03/29 12:56:43;;;;;;;5.90;1.10;;;10.70;90.10;;;;;;5010401;28;20060;-53
2022/03/29 12:59:35;;;;;;;3.60;1.60;;;10.80;90.50;;;;;;5010134;28;20025;-52
2022/03/29 13:02:14;;;;;;;4.47;1.27;;;10.80;91.10;;;;;;5010288;28;20038;-49